Time;durP1;ratioP1;P1;durP2;ratioP2;P2;SDS_P1;SDS_P2;PMS_P1;PMS_P2;Temp;Humidity;BMP_temperature;BMP_pressure;BME280_temperature;BME280_humidity;BME280_pressure;Samples;Min_cycle;Max_cycle;Signal;HPM_P1;HPM_P2
2022/02/07 00:01:00;;;;;;;0.57;0.10;;;;;;;4.68;67.25;95872.28;9965038;29;20054;-77
2022/02/07 00:06:22;;;;;;;0.10;0.03;;;;;;;4.64;67.27;95902.47;9964867;29;20050;-77
2022/02/07 00:12:12;;;;;;;0.10;0.10;;;;;;;4.66;67.22;95916.41;9980425;29;20054;-77
2022/02/07 00:18:05;;;;;;;0.38;0.10;;;;;;;4.71;67.08;95918.06;10013724;29;20069;-77
2022/02/07 00:23:55;;;;;;;0.40;0.10;;;;;;;4.72;67.21;95876.00;10007392;29;20058;-77
2022/02/07 00:29:19;;;;;;;0.35;0.00;;;;;;;4.76;67.16;95873.50;9988002;29;20493;-77
2022/02/07 00:35:12;;;;;;;0.28;0.00;;;;;;;4.83;67.16;95891.16;9999097;29;20057;-77
2022/02/07 00:42:08;;;;;;;0.90;0.22;;;;;;;4.80;66.95;95889.59;9999515;29;20058;-77
2022/02/07 00:48:09;;;;;;;0.93;0.13;;;;;;;4.78;67.47;95906.78;10016023;29;20057;-77
2022/02/07 00:53:35;;;;;;;0.57;0.10;;;;;;;4.80;67.21;95931.06;10000605;29;20068;-77
2022/02/07 00:59:26;;;;;;;0.40;0.20;;;;;;;4.84;67.54;95945.13;9998224;29;20473;-77
2022/02/07 01:05:25;;;;;;;0.30;0.00;;;;;;;4.81;67.36;95941.50;9996597;29;20497;-77
2022/02/07 01:11:01;;;;;;;0.20;0.00;;;;;;;4.77;67.09;95952.34;9986629;29;20046;-77
2022/02/07 01:59:54;;;;;;;0.10;0.00;;;;;;;4.27;67.14;95923.03;9988516;29;20042;-77
2022/02/07 02:05:25;;;;;;;0.28;0.00;;;;;;;4.21;67.53;95946.78;10008427;29;20102;-77
2022/02/07 02:10:54;;;;;;;0.28;0.10;;;;;;;4.32;67.92;95962.69;9982722;29;20055;-77
2022/02/07 02:50:05;;;;;;;0.40;0.10;;;;;;;4.44;68.11;96150.59;9987582;29;20489;-77
2022/02/07 02:55:36;;;;;;;0.60;0.10;;;;;;;4.43;68.06;96165.72;9999103;29;20050;-78
2022/02/07 03:00:59;;;;;;;0.90;0.10;;;;;;;4.41;67.41;96199.47;9982169;29;20045;-77
2022/02/07 03:06:30;;;;;;;1.80;0.10;;;;;;;4.37;67.32;96229.59;9984856;29;20049;-77
2022/02/07 03:12:30;;;;;;;0.95;0.10;;;;;;;4.13;67.02;96248.00;10010849;29;20054;-77
2022/02/07 03:17:51;;;;;;;0.20;0.10;;;;;;;3.89;66.44;96251.88;9994196;29;20058;-77
2022/02/07 03:23:43;;;;;;;1.05;0.15;;;;;;;3.75;66.32;96251.63;10001189;29;20485;-77
2022/02/07 03:30:09;;;;;;;1.00;0.20;;;;;;;3.63;66.66;96259.06;10002442;29;20046;-78
2022/02/07 03:35:38;;;;;;;1.63;0.10;;;;;;;3.55;66.83;96278.53;10015648;29;20050;-77
2022/02/07 03:41:32;;;;;;;1.38;0.10;;;;;;;3.31;66.47;96279.56;10000279;29;20058;-77
2022/02/07 03:47:23;;;;;;;1.00;0.10;;;;;;;3.01;66.63;96316.72;10008409;29;20065;-77
2022/02/07 03:53:45;;;;;;;1.20;0.20;;;;;;;2.85;67.06;96341.03;9989698;29;20086;-77
2022/02/07 03:59:06;;;;;;;3.05;0.50;;;;;;;2.80;67.76;96342.06;10000598;29;20116;-78
2022/02/07 04:05:50;;;;;;;1.63;0.13;;;;;;;2.72;67.51;96363.50;9998575;29;20054;-77
2022/02/07 04:16:39;;;;;;;0.50;0.10;;;;;;;2.97;68.04;96394.31;9989682;29;20085;-77
2022/02/07 04:22:28;;;;;;;0.98;0.20;;;;;;;2.87;68.26;96415.59;9996665;29;20046;-77
2022/02/07 04:28:00;;;;;;;1.05;0.13;;;;;;;2.90;68.08;96422.03;9990365;29;20042;-77
2022/02/07 04:33:25;;;;;;;0.65;0.10;;;;;;;2.94;68.30;96439.56;9988559;29;20533;-77
2022/02/07 04:38:47;;;;;;;1.30;0.30;;;;;;;2.90;68.38;96455.81;9988249;29;20046;-75
2022/02/07 04:45:05;;;;;;;1.25;0.20;;;;;;;2.92;67.04;96466.28;10011624;29;20122;-78
2022/02/07 04:58:56;;;;;;;1.30;0.17;;;;;;;2.88;65.52;96508.75;9928616;29;20051;-77
2022/02/07 05:14:00;;;;;;;1.55;0.10;;;;;;;2.71;65.63;96554.94;9871542;29;20079;-76
2022/02/07 05:19:51;;;;;;;1.17;0.20;;;;;;;2.65;66.04;96557.19;9880230;29;20510;-77
2022/02/07 05:26:23;;;;;;;1.48;0.15;;;;;;;2.75;65.87;96597.31;9934833;29;20493;-77
2022/02/07 05:32:56;;;;;;;2.47;0.20;;;;;;;2.88;65.35;96604.50;9787347;30;20068;-76
2022/02/07 05:39:25;;;;;;;1.00;0.20;;;;;;;3.00;65.00;96630.25;9829233;30;20484;-76
2022/02/07 05:47:02;;;;;;;2.85;0.20;;;;;;;3.07;64.15;96637.69;9766965;30;20057;-77
2022/02/07 05:52:56;;;;;;;3.28;0.22;;;;;;;3.09;64.15;96654.41;9764047;30;20504;-77
2022/02/07 05:59:19;;;;;;;0.95;0.10;;;;;;;3.11;63.80;96678.66;9684531;30;20059;-77
2022/02/07 06:05:03;;;;;;;4.35;0.40;;;;;;;3.20;63.56;96726.91;9906262;30;20083;-76
2022/02/07 06:11:24;;;;;;;2.05;0.20;;;;;;;3.29;63.27;96726.25;9896805;30;20407;-76
2022/02/07 06:17:16;;;;;;;2.65;0.22;;;;;;;3.32;62.80;96763.72;9898987;29;20084;-77
2022/02/07 06:23:07;;;;;;;1.42;0.17;;;;;;;3.35;62.26;96770.84;9897976;30;20411;-76
2022/02/07 06:29:07;;;;;;;2.15;0.28;;;;;;;3.39;62.02;96785.69;9984593;29;20050;-76
2022/02/07 06:36:09;;;;;;;1.42;0.30;;;;;;;3.42;61.39;96814.91;9986065;29;20046;-76
2022/02/07 06:42:12;;;;;;;1.55;0.43;;;;;;;3.44;60.82;96822.59;10022392;29;20490;-76
2022/02/07 06:48:35;;;;;;;4.63;0.40;;;;;;;3.44;60.52;96847.44;9993237;29;20488;-76
2022/02/07 06:54:41;;;;;;;3.53;0.43;;;;;;;3.37;60.70;96859.28;9996183;29;20038;-77
2022/02/07 07:00:36;;;;;;;3.58;0.32;;;;;;;3.45;60.76;96882.72;9996350;29;20117;-76
2022/02/07 07:06:29;;;;;;;3.40;0.40;;;;;;;3.53;60.15;96893.69;10003063;29;20058;-76
2022/02/07 07:13:12;;;;;;;2.37;0.40;;;;;;;3.64;59.34;96898.72;9994577;29;20058;-76
2022/02/07 07:20:26;;;;;;;2.65;0.40;;;;;;;3.84;59.66;96915.44;9942368;29;20051;-76
2022/02/07 07:27:32;;;;;;;2.78;0.35;;;;;;;3.90;58.12;96943.53;9924371;29;20058;-77
2022/02/07 07:33:59;;;;;;;7.60;0.40;;;;;;;4.09;58.39;96940.19;9933763;29;20058;-77
2022/02/07 07:39:51;;;;;;;2.88;0.30;;;;;;;4.21;56.98;96972.28;9923401;29;20055;-76
2022/02/07 07:45:49;;;;;;;4.80;0.40;;;;;;;4.71;57.58;96985.81;9923940;29;20059;-81
2022/02/07 07:52:17;;;;;;;2.05;0.30;;;;;;;5.15;57.09;96990.56;10007139;29;20054;-77
2022/02/07 08:04:15;;;;;;;4.05;0.57;;;;;;;8.04;53.50;97013.66;9998343;29;20049;-77
2022/02/07 08:17:55;;;;;;;4.80;0.60;;;;;;;12.37;45.76;97028.59;10028406;29;20062;-75
2022/02/07 08:23:16;;;;;;;2.78;0.82;;;;;;;20.39;36.62;97033.00;10001115;29;20061;-76
2022/02/07 08:28:37;;;;;;;3.53;0.50;;;;;;;23.38;31.84;97065.13;10001258;29;20052;-75
2022/02/07 08:33:57;;;;;;;3.47;0.30;;;;;;;24.15;32.49;97085.47;9988099;29;20488;-75
2022/02/07 08:39:18;;;;;;;1.63;0.30;;;;;;;26.96;26.23;97090.03;9987203;29;20050;-75
2022/02/07 08:44:39;;;;;;;3.58;0.40;;;;;;;28.46;24.08;97111.47;10000097;29;20389;-76
2022/02/07 08:50:00;;;;;;;3.22;0.30;;;;;;;27.75;22.57;97097.25;10000435;29;20042;-75
2022/02/07 09:01:03;;;;;;;1.90;0.40;;;;;;;29.27;18.41;97138.34;10001608;29;20061;-80
2022/02/07 09:06:42;;;;;;;1.75;0.28;;;;;;;28.76;17.54;97153.44;9988703;29;20489;-81
2022/02/07 09:12:04;;;;;;;1.40;0.30;;;;;;;25.82;18.28;97144.91;9989458;29;20049;-79
2022/02/07 09:17:25;;;;;;;2.63;0.30;;;;;;;24.28;18.64;97154.66;10010218;29;20042;-78
2022/02/07 09:22:47;;;;;;;;;;;;;;;18.87;21.76;97164.84;9985367;29;20060;-75
2022/02/07 09:28:08;;;;;;;1.00;0.20;;;;;;;14.09;24.98;97189.38;9997148;29;19992;-75
2022/02/07 09:33:29;;;;;;;1.42;0.20;;;;;;;11.09;27.80;97199.41;9996934;29;20056;-76
2022/02/07 09:38:53;;;;;;;1.15;0.30;;;;;;;9.18;33.83;97221.34;10002954;29;20485;-77
2022/02/07 09:44:14;;;;;;;4.25;0.40;;;;;;;11.44;35.28;97220.91;9999272;29;20050;-79
2022/02/07 09:49:35;;;;;;;1.13;0.43;;;;;;;19.37;29.44;97229.75;9984054;29;20132;-81
2022/02/07 09:54:56;;;;;;;1.60;0.35;;;;;;;22.64;25.73;97242.28;9983651;29;20050;-78
2022/02/07 10:00:20;;;;;;;0.98;0.30;;;;;;;22.85;25.38;97255.34;9970659;29;20405;-79
2022/02/07 10:05:50;;;;;;;2.05;0.28;;;;;;;27.45;21.64;97250.84;10008949;29;20068;-81
2022/02/07 10:16:50;;;;;;;1.58;0.13;;;;;;;26.67;19.08;97273.41;9982726;29;20481;-79
2022/02/07 10:50:15;;;;;;;0.82;0.20;;;;;;;17.26;27.70;97297.63;10007129;29;20477;-79
2022/02/07 10:55:38;;;;;;;1.73;0.25;;;;;;;23.87;19.66;97316.19;10007084;29;20048;-78
2022/02/07 11:01:10;;;;;;;2.63;0.30;;;;;;;21.98;21.05;97332.28;9994779;29;20404;-79
2022/02/07 11:06:36;;;;;;;1.55;0.20;;;;;;;19.91;22.85;97353.56;9984438;29;20485;-78
2022/02/07 11:13:08;;;;;;;2.25;0.22;;;;;;;17.16;24.07;97373.44;9982681;29;20042;-80
2022/02/07 11:18:06;;;;;;;2.33;0.30;;;;;;;13.83;27.12;97377.59;10003014;29;20111;-81
2022/02/07 11:23:34;;;;;;;1.95;0.43;;;;;;;11.55;29.95;97399.00;10010445;29;20405;-82
2022/02/07 11:28:56;;;;;;;2.90;1.00;;;;;;;10.27;31.77;97425.50;10001237;29;20081;-79
2022/02/07 11:34:17;;;;;;;3.25;0.60;;;;;;;9.58;33.63;97420.31;9997969;29;20451;-74
2022/02/07 11:39:41;;;;;;;2.88;0.65;;;;;;;9.69;34.59;97423.16;9997031;29;20079;-77
2022/02/07 11:45:20;;;;;;;3.45;0.57;;;;;;;9.36;35.10;97403.59;10003884;29;20107;-76
2022/02/07 11:50:44;;;;;;;2.08;0.50;;;;;;;9.13;35.84;97436.81;9988654;29;20053;-76
2022/02/07 12:02:36;;;;;;;2.20;0.43;;;;;;;10.04;36.59;97447.72;9907003;30;20475;-75
2022/02/07 12:08:00;;;;;;;1.88;0.30;;;;;;;9.95;36.75;97457.59;9860836;30;20086;-75
2022/02/07 12:13:39;;;;;;;2.83;0.50;;;;;;;10.55;37.35;97467.69;9885377;29;20114;-76
2022/02/07 12:19:20;;;;;;;1.65;0.40;;;;;;;10.47;36.82;97481.13;9885459;30;20511;-76
2022/02/07 12:25:01;;;;;;;2.30;0.30;;;;;;;10.13;36.98;97497.09;9879672;30;20068;-76
2022/02/07 12:30:31;;;;;;;3.95;0.50;;;;;;;9.73;37.39;97500.72;9900165;29;20089;-76
2022/02/07 12:36:00;;;;;;;4.50;0.50;;;;;;;9.80;37.93;97510.97;9977524;29;20050;-76
2022/02/07 12:41:23;;;;;;;6.10;0.82;;;;;;;9.98;37.08;97500.28;9968805;29;20042;-76
2022/02/07 12:46:46;;;;;;;3.85;0.90;;;;;;;9.80;37.36;97516.53;9972102;29;20046;-76
2022/02/07 12:52:08;;;;;;;3.38;0.70;;;;;;;10.32;36.85;97510.19;9988288;29;20133;-77
2022/02/07 12:57:38;;;;;;;6.78;0.68;;;;;;;10.30;36.56;97529.59;9970436;29;20042;-77
2022/02/07 13:03:02;;;;;;;4.18;0.70;;;;;;;10.22;36.82;97531.84;9982595;29;20047;-76
2022/02/07 13:08:24;;;;;;;5.93;0.90;;;;;;;10.31;36.43;97533.84;9954435;29;20042;-77
2022/02/07 13:13:48;;;;;;;5.82;0.75;;;;;;;10.34;36.76;97537.50;9986591;29;20129;-76
2022/02/07 13:19:15;;;;;;;4.35;0.50;;;;;;;10.35;36.22;97536.91;9964527;29;20073;-77
2022/02/07 13:24:37;;;;;;;4.68;0.63;;;;;;;9.95;36.67;97566.34;9987304;29;20459;-76
2022/02/07 13:29:58;;;;;;;4.13;0.70;;;;;;;9.75;36.91;97573.34;9988756;29;20046;-77
2022/02/07 13:35:19;;;;;;;6.50;0.50;;;;;;;9.79;37.15;97576.41;9995887;29;20069;-77
2022/02/07 13:40:44;;;;;;;5.78;0.75;;;;;;;9.97;37.12;97590.84;9979127;29;20069;-77
2022/02/07 13:46:05;;;;;;;6.05;0.73;;;;;;;9.97;37.21;97604.78;9976736;29;20045;-77
2022/02/07 13:52:08;;;;;;;6.03;0.85;;;;;;;10.23;37.02;97617.75;9979101;29;20401;-74
2022/02/07 13:57:30;;;;;;;3.80;0.60;;;;;;;10.18;36.85;97640.34;10008145;29;20042;-82
2022/02/07 14:03:14;;;;;;;7.18;1.25;;;;;;;9.31;37.63;97635.81;9998527;29;20056;-81
2022/02/07 14:08:49;;;;;;;5.28;0.68;;;;;;;8.59;40.52;97654.31;9986961;29;20387;-79
2022/02/07 14:14:10;;;;;;;;;;;;;;;8.20;40.61;97686.81;9979682;29;20038;-80
2022/02/07 14:19:45;;;;;;;3.92;0.60;;;;;;;8.04;41.06;97686.34;9970839;29;20288;-79
2022/02/07 14:25:08;;;;;;;1.77;0.35;;;;;;;8.13;41.75;97687.69;9976024;29;20405;-77
2022/02/07 14:30:30;;;;;;;3.43;0.60;;;;;;;8.12;41.96;97697.34;9971107;29;20062;-78
2022/02/07 14:35:51;;;;;;;4.45;0.40;;;;;;;8.01;42.10;97715.31;9958264;29;20390;-76
2022/02/07 14:41:12;;;;;;;2.78;0.50;;;;;;;8.02;42.37;97733.44;9945315;29;20046;-75
2022/02/07 14:46:36;;;;;;;5.20;0.60;;;;;;;8.33;41.70;97723.31;9945444;29;20046;-77
2022/02/07 14:52:03;;;;;;;3.60;0.70;;;;;;;8.22;41.45;97737.78;9959260;29;20042;-81
2022/02/07 14:57:25;;;;;;;3.38;0.60;;;;;;;7.77;41.52;97746.75;9946102;29;20049;-77
2022/02/07 15:02:47;;;;;;;5.28;1.08;;;;;;;7.57;42.91;97770.91;9947978;29;20050;-77
2022/02/07 15:08:07;;;;;;;5.10;0.85;;;;;;;7.36;43.21;97776.91;9956718;29;20542;-78
2022/02/07 15:13:33;;;;;;;4.30;0.88;;;;;;;7.54;43.61;97792.25;9944222;29;20121;-77
2022/02/07 15:18:55;;;;;;;4.55;0.95;;;;;;;7.87;43.33;97809.44;9962468;29;20501;-77
2022/02/07 15:24:15;;;;;;;6.20;1.70;;;;;;;7.96;42.78;97824.69;9987150;29;20081;-77
2022/02/07 15:29:37;;;;;;;8.63;1.23;;;;;;;7.66;43.03;97842.47;9989002;29;20046;-77
2022/02/07 15:35:03;;;;;;;5.93;1.33;;;;;;;7.37;43.69;97864.47;9988339;29;20496;-77
2022/02/07 15:40:24;;;;;;;10.65;1.40;;;;;;;6.98;44.63;97857.78;9988555;29;20061;-77
2022/02/07 15:45:46;;;;;;;9.93;1.33;;;;;;;6.54;45.72;97870.13;9988094;29;20054;-77
2022/02/07 15:51:09;;;;;;;8.27;1.42;;;;;;;6.38;46.28;97884.66;9988372;29;20121;-77
2022/02/07 15:56:30;;;;;;;10.57;2.00;;;;;;;6.37;46.02;97895.00;10000556;29;20038;-78
2022/02/07 16:01:51;;;;;;;9.98;1.85;;;;;;;6.29;46.21;97902.63;9965056;29;20050;-77
2022/02/07 16:07:12;;;;;;;11.07;1.70;;;;;;;6.25;46.99;97897.44;9967105;29;20508;-77
2022/02/07 16:12:33;;;;;;;7.40;1.13;;;;;;;6.14;46.56;97911.00;9987186;29;20473;-77
2022/02/07 16:17:54;;;;;;;5.28;1.20;;;;;;;6.03;46.91;97906.63;9974800;29;20069;-76
2022/02/07 16:23:17;;;;;;;7.53;1.25;;;;;;;6.01;47.65;97929.34;9986736;29;20053;-77
2022/02/07 16:28:38;;;;;;;4.57;0.88;;;;;;;5.91;48.04;97938.81;9986815;29;20046;-78
2022/02/07 16:33:59;;;;;;;5.90;0.80;;;;;;;5.75;48.91;97927.00;9994655;29;20083;-80
2022/02/07 16:39:24;;;;;;;5.55;0.80;;;;;;;5.62;48.68;97954.91;10031619;29;20163;-81
2022/02/07 16:44:50;;;;;;;7.78;1.05;;;;;;;5.48;49.10;97962.66;10033716;29;20073;-80
2022/02/07 16:50:11;;;;;;;5.28;1.02;;;;;;;5.30;49.38;97975.59;10033352;29;20174;-76
2022/02/07 16:55:33;;;;;;;4.75;1.02;;;;;;;5.35;49.67;98005.13;10005172;29;20050;-80
2022/02/07 17:00:57;;;;;;;7.03;0.90;;;;;;;5.31;51.30;98020.63;10029924;29;20030;-81
2022/02/07 17:06:23;;;;;;;4.70;0.70;;;;;;;5.07;52.57;98021.88;9998649;29;20121;-77
2022/02/07 17:11:45;;;;;;;7.32;1.20;;;;;;;4.69;53.10;98033.59;9998930;29;20053;-77
2022/02/07 17:17:07;;;;;;;7.38;1.00;;;;;;;4.32;55.79;98035.66;10010072;29;20045;-77
2022/02/07 17:22:29;;;;;;;5.22;0.68;;;;;;;4.14;54.42;98047.72;9997677;29;20054;-76
2022/02/07 17:27:52;;;;;;;6.65;1.20;;;;;;;3.97;55.18;98044.69;9972086;29;20404;-76
2022/02/07 17:33:13;;;;;;;3.67;0.70;;;;;;;3.91;56.28;98057.91;9985380;29;20134;-76
2022/02/07 17:38:36;;;;;;;5.63;1.20;;;;;;;3.94;55.31;98070.59;9984299;29;20053;-77
2022/02/07 17:43:58;;;;;;;4.82;0.80;;;;;;;3.87;55.28;98079.59;9997359;29;20136;-78
2022/02/07 17:49:19;;;;;;;7.35;1.02;;;;;;;3.83;54.83;98096.50;9984767;29;20050;-77
2022/02/07 17:54:40;;;;;;;9.00;1.00;;;;;;;3.88;55.41;98084.56;9996631;29;20107;-77
2022/02/07 18:00:09;;;;;;;5.60;1.38;;;;;;;3.93;55.36;98105.03;9983779;29;20042;-76
2022/02/07 18:05:31;;;;;;;3.92;0.68;;;;;;;3.88;55.94;98130.78;9983960;29;20050;-76
2022/02/07 18:10:52;;;;;;;9.10;1.10;;;;;;;3.88;55.73;98136.31;9983546;29;20068;-75
2022/02/07 18:16:16;;;;;;;4.95;0.80;;;;;;;3.81;55.90;98148.03;9982753;29;20050;-75
2022/02/07 18:21:38;;;;;;;5.28;1.20;;;;;;;3.81;55.23;98170.13;9993235;29;20062;-80
2022/02/07 18:26:59;;;;;;;6.07;1.10;;;;;;;3.79;56.33;98178.22;10001072;29;20497;-78
2022/02/07 18:32:19;;;;;;;12.50;1.88;;;;;;;3.76;55.91;98184.78;9982643;29;20061;-76
2022/02/07 18:37:43;;;;;;;5.95;0.85;;;;;;;3.84;56.18;98180.09;10008201;29;20477;-77
2022/02/07 18:43:04;;;;;;;5.90;0.85;;;;;;;3.82;56.19;98199.22;9995745;29;20386;-76
2022/02/07 18:48:25;;;;;;;3.65;0.73;;;;;;;3.88;56.14;98210.88;9982069;29;20474;-77
2022/02/07 18:53:46;;;;;;;3.70;0.70;;;;;;;4.00;55.55;98225.91;9981478;29;20049;-77
2022/02/07 18:59:16;;;;;;;6.65;1.20;;;;;;;4.16;55.53;98215.75;9994510;29;20110;-77
2022/02/07 19:10:07;;;;;;;7.30;1.02;;;;;;;4.17;55.69;98240.06;9983860;29;20042;-77
2022/02/07 19:15:31;;;;;;;3.90;0.80;;;;;;;4.17;55.94;98239.31;9982259;29;20141;-75
2022/02/07 19:20:53;;;;;;;5.20;0.98;;;;;;;4.36;56.33;98250.91;9982164;29;20065;-74
2022/02/07 19:26:22;;;;;;;4.43;0.93;;;;;;;4.41;56.09;98233.44;9981896;29;20405;-75
2022/02/07 19:31:49;;;;;;;6.25;0.90;;;;;;;4.40;56.12;98233.97;9994607;29;20056;-75
2022/02/07 19:37:10;;;;;;;5.13;1.00;;;;;;;4.40;55.89;98251.28;10006501;29;20061;-75
2022/02/07 19:47:58;;;;;;;6.30;0.90;;;;;;;4.43;55.45;98263.28;9995408;29;20046;-75
2022/02/07 19:53:20;;;;;;;5.30;0.90;;;;;;;4.21;56.14;98275.63;9981395;29;20050;-75
2022/02/07 19:58:40;;;;;;;4.25;0.70;;;;;;;4.02;55.87;98289.63;9981114;29;20054;-75
2022/02/07 20:04:02;;;;;;;4.53;0.70;;;;;;;3.89;56.14;98303.50;9984983;29;20084;-75
2022/02/07 20:09:25;;;;;;;5.63;0.73;;;;;;;3.76;56.23;98300.75;9988018;29;20500;-75
2022/02/07 20:14:49;;;;;;;3.13;0.73;;;;;;;3.66;56.72;98303.97;10000251;29;20064;-74
2022/02/07 20:20:10;;;;;;;3.08;0.70;;;;;;;3.62;56.97;98297.31;9987521;29;20570;-74
2022/02/07 20:25:32;;;;;;;3.40;0.55;;;;;;;3.74;57.18;98310.31;10012231;29;20054;-74
2022/02/07 20:30:52;;;;;;;5.43;0.88;;;;;;;3.82;57.17;98326.25;9974702;29;20046;-75
2022/02/07 20:36:13;;;;;;;3.00;0.77;;;;;;;3.95;56.82;98335.22;9986734;29;20042;-74
2022/02/07 20:41:35;;;;;;;4.85;1.02;;;;;;;3.97;56.75;98348.53;9986585;29;20085;-75
2022/02/07 20:46:56;;;;;;;3.88;0.88;;;;;;;3.90;57.33;98340.91;9986701;29;20057;-74
2022/02/07 20:52:24;;;;;;;7.72;0.93;;;;;;;3.78;57.70;98354.19;9999616;29;20478;-75
2022/02/07 20:57:46;;;;;;;5.50;1.55;;;;;;;3.73;57.40;98355.78;9986073;29;20056;-75
2022/02/07 21:03:26;;;;;;;6.40;1.00;;;;;;;3.76;57.38;98344.94;10003431;29;20413;-75
2022/02/07 21:08:47;;;;;;;5.43;1.25;;;;;;;3.74;57.28;98351.00;9985278;29;20181;-75
2022/02/07 21:14:08;;;;;;;9.52;1.17;;;;;;;3.63;57.20;98370.56;9984783;29;20405;-76
2022/02/07 21:19:37;;;;;;;6.68;1.00;;;;;;;3.52;57.55;98368.78;9985034;29;20065;-76
2022/02/07 21:24:58;;;;;;;6.70;0.80;;;;;;;3.52;57.45;98371.53;9986803;29;20042;-76
2022/02/07 21:30:19;;;;;;;4.60;0.80;;;;;;;3.41;57.52;98388.31;9984030;29;20623;-76
2022/02/07 21:35:41;;;;;;;6.03;0.65;;;;;;;3.47;57.93;98396.47;9982397;29;20461;-76
2022/02/07 21:41:03;;;;;;;7.97;1.20;;;;;;;3.54;58.13;98391.06;9996786;29;20400;-76
2022/02/07 21:46:24;;;;;;;4.80;0.80;;;;;;;3.79;57.48;98405.41;9996991;29;20046;-76
2022/02/07 21:51:48;;;;;;;7.07;2.15;;;;;;;3.96;57.50;98413.34;9982788;29;20106;-76
2022/02/07 21:57:09;;;;;;;8.77;1.50;;;;;;;4.07;57.53;98437.22;9967880;29;20504;-76
2022/02/07 22:02:34;;;;;;;5.50;0.73;;;;;;;4.19;56.96;98453.03;9966455;29;20053;-76
2022/02/07 22:07:55;;;;;;;9.52;1.30;;;;;;;4.30;57.13;98458.31;9979876;29;20050;-76
2022/02/07 22:13:17;;;;;;;6.95;1.33;;;;;;;4.40;56.75;98474.47;9991816;29;20045;-76
2022/02/07 22:18:38;;;;;;;7.15;1.30;;;;;;;4.37;56.88;98476.28;9992131;29;20058;-76
2022/02/07 22:24:00;;;;;;;7.70;1.15;;;;;;;4.41;56.46;98479.44;9978259;29;20057;-77
2022/02/07 22:29:23;;;;;;;9.35;1.55;;;;;;;4.47;56.60;98476.56;9968481;29;20054;-76
2022/02/07 22:34:50;;;;;;;9.02;1.20;;;;;;;4.52;56.50;98492.28;9983021;29;20046;-77
2022/02/07 22:40:11;;;;;;;7.20;1.30;;;;;;;4.46;56.19;98483.38;9983539;29;20046;-76
2022/02/07 22:45:33;;;;;;;7.13;1.25;;;;;;;4.48;56.50;98498.16;9995437;29;20058;-76
2022/02/07 22:50:54;;;;;;;6.28;0.93;;;;;;;4.48;56.51;98489.13;9995210;29;20046;-76
2022/02/07 22:56:17;;;;;;;5.95;1.75;;;;;;;4.44;56.40;98494.22;9982151;29;20466;-76
2022/02/07 23:01:38;;;;;;;8.52;1.00;;;;;;;4.36;56.42;98498.94;9995044;29;20042;-77
2022/02/07 23:07:03;;;;;;;6.40;1.13;;;;;;;4.27;56.24;98500.84;9969436;29;20504;-77
2022/02/07 23:12:36;;;;;;;8.00;1.40;;;;;;;4.35;56.74;98516.78;9984446;29;20481;-76
2022/02/07 23:18:13;;;;;;;8.25;1.30;;;;;;;4.38;56.53;98518.47;9995817;29;20390;-76
2022/02/07 23:34:59;;;;;;;6.13;0.82;;;;;;;4.21;57.10;98569.31;9986101;29;20042;-77
